Time;durP1;ratioP1;P1;durP2;ratioP2;P2;SDS_P1;SDS_P2;PMS_P1;PMS_P2;Temp;Humidity;BMP_temperature;BMP_pressure;BME280_temperature;BME280_humidity;BME280_pressure;Samples;Min_cycle;Max_cycle;Signal;HPM_P1;HPM_P2
2021/09/22 00:00:24;;;;;;;5.93;5.10;;;;;;;18.92;56.72;101030.31;5034683;28;20041;-73
2021/09/22 00:02:49;;;;;;;7.60;5.03;;;;;;;18.97;59.74;101022.53;5034497;28;20033;-70
2021/09/22 00:05:15;;;;;;;6.18;5.50;;;;;;;18.98;60.06;101019.03;5032734;28;20029;-70
2021/09/22 00:07:41;;;;;;;8.60;5.10;;;;;;;18.95;60.14;101006.78;5016554;28;20038;-70
2021/09/22 00:10:10;;;;;;;7.78;5.30;;;;;;;18.92;59.95;101010.25;5025593;28;20051;-74
2021/09/22 00:12:36;;;;;;;6.32;5.03;;;;;;;18.84;60.52;100990.06;5031683;28;20112;-71
2021/09/22 00:15:05;;;;;;;6.57;4.90;;;;;;;18.91;59.51;101012.88;5034332;28;20087;-71
2021/09/22 00:17:33;;;;;;;6.43;5.32;;;;;;;19.01;58.78;101013.84;5034214;28;20060;-74
2021/09/22 00:19:59;;;;;;;6.35;5.45;;;;;;;18.51;59.29;100983.59;5034257;28;20030;-72
2021/09/22 00:22:25;;;;;;;8.23;5.68;;;;;;;18.42;60.54;101024.44;5033984;28;20112;-73
2021/09/22 00:24:50;;;;;;;8.32;5.78;;;;;;;18.41;61.92;101024.44;5033993;28;20468;-73
2021/09/22 00:27:16;;;;;;;6.75;5.60;;;;;;;18.35;62.55;101014.75;5034059;28;20033;-74
2021/09/22 00:29:41;;;;;;;9.40;5.45;;;;;;;18.31;63.50;101010.34;5034237;28;20021;-71
2021/09/22 00:32:07;;;;;;;7.13;5.43;;;;;;;18.25;64.85;101016.34;5034126;28;20048;-70
2021/09/22 00:34:32;;;;;;;10.40;6.47;;;;;;;17.71;65.41;101032.94;5034222;28;20057;-70
2021/09/22 00:36:58;;;;;;;11.23;6.25;;;;;;;17.47;66.85;101026.44;5033889;28;20468;-70
2021/09/22 00:39:24;;;;;;;11.05;5.75;;;;;;;17.40;67.08;101020.22;5033317;28;20032;-73
2021/09/22 00:41:50;;;;;;;10.07;6.50;;;;;;;17.21;67.48;101020.72;5033765;28;20606;-74
2021/09/22 00:44:15;;;;;;;12.18;5.78;;;;;;;17.04;67.35;100992.59;5033763;28;20059;-72
2021/09/22 00:46:41;;;;;;;10.48;5.90;;;;;;;17.31;67.02;100991.34;5034058;28;20456;-78
2021/09/22 00:49:06;;;;;;;7.60;5.95;;;;;;;17.49;65.26;101003.84;5033776;28;20029;-73
2021/09/22 00:51:32;;;;;;;11.23;6.00;;;;;;;17.38;65.44;100981.88;5033905;28;20017;-75
2021/09/22 00:53:58;;;;;;;6.93;5.85;;;;;;;17.46;65.70;101007.28;5033345;28;20033;-73
2021/09/22 00:56:23;;;;;;;6.55;5.85;;;;;;;17.42;65.50;101015.91;5033919;28;20488;-72
2021/09/22 00:58:49;;;;;;;8.32;5.38;;;;;;;17.39;65.81;101010.63;5033293;28;20041;-76
2021/09/22 01:01:14;;;;;;;8.23;6.60;;;;;;;17.38;66.00;101005.38;5033028;28;20061;-81
2021/09/22 01:03:40;;;;;;;6.78;6.07;;;;;;;17.00;66.56;100942.94;5031498;28;20123;-76
2021/09/22 01:06:06;;;;;;;9.75;6.10;;;;;;;17.25;66.00;100996.47;5032642;28;20030;-70
2021/09/22 01:08:32;;;;;;;8.20;6.18;;;;;;;17.04;66.84;100992.59;5028882;28;20538;-72
2021/09/22 01:10:58;;;;;;;9.35;6.00;;;;;;;17.14;66.13;101006.69;5031197;28;20152;-77
2021/09/22 01:13:24;;;;;;;7.60;5.57;;;;;;;17.11;65.79;101001.44;5032170;28;20471;-73
2021/09/22 01:15:50;;;;;;;10.55;5.47;;;;;;;17.00;66.62;101000.31;5032454;28;20036;-72
2021/09/22 01:18:23;;;;;;;8.25;5.68;;;;;;;17.06;66.00;100985.69;5032833;28;20025;-77
2021/09/22 01:20:53;;;;;;;9.38;6.13;;;;;;;17.10;66.24;100991.84;5032441;28;20644;-77
2021/09/22 01:23:19;;;;;;;8.60;6.75;;;;;;;17.15;66.08;100979.75;5029530;28;20032;-74
2021/09/22 01:25:47;;;;;;;10.40;6.70;;;;;;;17.10;65.61;100960.53;5033177;28;20451;-75
2021/09/22 01:28:17;;;;;;;9.82;6.43;;;;;;;17.30;65.49;100986.97;5033022;28;20025;-75
2021/09/22 01:30:42;;;;;;;10.52;6.47;;;;;;;17.41;65.41;100995.00;5032118;28;20031;-74
2021/09/22 01:33:10;;;;;;;9.70;6.50;;;;;;;17.43;65.05;100988.06;5032867;28;20033;-74
2021/09/22 01:35:42;;;;;;;8.18;6.00;;;;;;;17.44;65.79;100987.22;5032442;28;20031;-74
2021/09/22 01:38:19;;;;;;;9.13;6.00;;;;;;;17.32;64.60;100955.69;5033022;28;20037;-75
2021/09/22 01:41:05;;;;;;;9.48;7.03;;;;;;;17.17;64.85;100945.88;5027513;28;20025;-75
2021/09/22 01:43:32;;;;;;;9.30;6.03;;;;;;;17.36;64.90;100978.38;5032551;28;20407;-75
2021/09/22 01:46:00;;;;;;;8.00;6.32;;;;;;;17.27;64.91;100963.44;5032651;28;20483;-74
2021/09/22 01:48:26;;;;;;;7.72;6.60;;;;;;;17.32;65.61;100969.63;5033014;28;20029;-76
2021/09/22 01:50:54;;;;;;;8.68;6.57;;;;;;;17.42;64.20;100976.75;5032797;28;20048;-74
2021/09/22 01:53:20;;;;;;;9.00;5.78;;;;;;;17.23;64.12;100967.72;5032429;28;20033;-75
2021/09/22 01:55:45;;;;;;;10.40;6.20;;;;;;;17.20;63.71;100933.75;5033102;28;20018;-75
2021/09/22 01:58:12;;;;;;;8.10;5.53;;;;;;;17.57;62.82;100965.69;5032096;28;20029;-77
2021/09/22 02:00:37;;;;;;;6.75;5.80;;;;;;;17.57;62.42;100950.03;5032179;28;20123;-75
2021/09/22 02:03:03;;;;;;;10.18;6.00;;;;;;;17.73;62.33;100969.44;5032392;28;20480;-75
2021/09/22 02:05:29;;;;;;;6.72;5.70;;;;;;;17.87;61.93;100964.41;5032427;28;20112;-75
2021/09/22 02:07:55;;;;;;;8.10;5.45;;;;;;;17.85;61.66;100952.19;5032054;28;20029;-74
2021/09/22 02:10:20;;;;;;;7.68;5.60;;;;;;;17.77;61.46;100912.91;5032046;28;20033;-73
2021/09/22 02:12:46;;;;;;;6.40;5.28;;;;;;;17.88;60.50;100947.88;5032192;28;20049;-75
2021/09/22 02:15:11;;;;;;;5.80;5.00;;;;;;;17.83;60.45;100938.22;5031946;28;20025;-73
2021/09/22 02:17:37;;;;;;;7.15;5.43;;;;;;;17.82;60.45;100939.97;5032524;28;20094;-76
2021/09/22 02:20:04;;;;;;;6.22;5.30;;;;;;;17.76;60.70;100948.56;5031682;28;20561;-74
2021/09/22 02:22:30;;;;;;;5.63;4.85;;;;;;;17.68;61.16;100946.69;5046158;28;20112;-76
2021/09/22 02:24:55;;;;;;;6.60;5.07;;;;;;;17.72;61.35;100957.22;5031927;28;20109;-76
2021/09/22 02:27:21;;;;;;;6.35;5.10;;;;;;;17.77;60.20;100929.44;5032272;28;20103;-76
2021/09/22 02:29:47;;;;;;;6.32;5.10;;;;;;;17.84;60.89;100925.16;5032201;28;20030;-78
2021/09/22 02:32:14;;;;;;;6.25;4.60;;;;;;;17.99;60.32;100950.66;5032303;28;20030;-78
2021/09/22 02:34:40;;;;;;;8.63;4.75;;;;;;;17.92;60.19;100951.41;5047603;28;20502;-77
2021/09/22 02:37:06;;;;;;;5.88;4.90;;;;;;;17.83;60.90;100935.59;5032104;28;20033;-78
2021/09/22 02:39:32;;;;;;;6.22;4.60;;;;;;;17.89;61.03;100941.78;5032122;28;20037;-78
2021/09/22 02:41:58;;;;;;;7.15;4.90;;;;;;;18.06;61.83;100944.66;5031832;28;20025;-78
2021/09/22 02:44:24;;;;;;;5.43;4.53;;;;;;;17.92;60.62;100920.06;5031838;28;20095;-76
2021/09/22 02:46:50;;;;;;;7.78;4.85;;;;;;;18.13;60.99;100942.16;5032154;28;20026;-78
2021/09/22 02:49:16;;;;;;;5.78;4.80;;;;;;;18.14;60.87;100942.16;5032260;28;20030;-78
2021/09/22 02:51:41;;;;;;;5.00;4.50;;;;;;;18.10;60.29;100937.75;5031749;28;20472;-78
2021/09/22 02:54:07;;;;;;;7.75;4.45;;;;;;;18.10;60.02;100946.47;5031962;28;20369;-77
2021/09/22 02:56:32;;;;;;;6.93;4.97;;;;;;;18.15;60.09;100950.91;5031958;28;20087;-78
2021/09/22 02:58:58;;;;;;;7.20;5.13;;;;;;;18.10;60.98;100937.75;5031413;28;20055;-77
2021/09/22 03:01:23;;;;;;;6.80;4.65;;;;;;;18.02;61.35;100961.19;5030631;28;20025;-78
2021/09/22 03:03:49;;;;;;;7.72;4.43;;;;;;;18.02;61.04;100962.88;5031426;28;20025;-78
2021/09/22 03:06:14;;;;;;;6.13;4.57;;;;;;;18.07;61.21;100959.50;5031736;28;20057;-78
2021/09/22 03:08:40;;;;;;;6.30;5.18;;;;;;;17.98;60.50;100963.72;5031682;28;20052;-81
2021/09/22 03:11:08;;;;;;;6.85;5.10;;;;;;;17.76;61.49;100969.47;5046301;28;20063;-79
2021/09/22 03:13:35;;;;;;;5.43;4.63;;;;;;;17.51;61.19;100976.03;5079410;28;20519;-77
2021/09/22 03:16:00;;;;;;;6.20;4.95;;;;;;;17.23;61.84;100987.72;5031464;28;20446;-77
2021/09/22 03:18:26;;;;;;;6.40;5.00;;;;;;;17.03;61.38;100984.75;5031351;28;20037;-78
2021/09/22 03:20:52;;;;;;;6.13;5.43;;;;;;;17.05;61.09;100980.44;5031380;28;20055;-77
2021/09/22 03:23:18;;;;;;;6.18;5.30;;;;;;;17.12;60.66;100974.47;5031337;28;20112;-77
2021/09/22 03:25:43;;;;;;;6.00;5.20;;;;;;;17.09;61.02;100969.22;5031416;28;20032;-77
2021/09/22 03:28:09;;;;;;;9.70;5.88;;;;;;;17.05;60.78;100972.63;5031128;28;20041;-77
2021/09/22 03:30:34;;;;;;;9.60;6.22;;;;;;;17.13;61.52;100965.78;5031480;28;20044;-77
2021/09/22 03:33:00;;;;;;;6.90;5.15;;;;;;;17.25;61.35;100954.72;5030491;28;20026;-77
2021/09/22 03:35:25;;;;;;;6.65;5.00;;;;;;;17.37;60.73;100952.31;5031233;28;20026;-77
2021/09/22 03:37:51;;;;;;;7.53;6.38;;;;;;;17.48;59.47;100967.25;5031183;28;20097;-77
2021/09/22 03:40:17;;;;;;;6.93;5.22;;;;;;;17.38;60.67;100946.22;5031221;28;20021;-77
2021/09/22 03:42:42;;;;;;;8.10;5.82;;;;;;;17.63;61.50;100963.19;5030977;28;20025;-78
2021/09/22 03:45:08;;;;;;;8.38;6.35;;;;;;;17.71;60.29;100963.28;5046663;28;20025;-81
2021/09/22 03:47:34;;;;;;;9.30;7.45;;;;;;;17.73;59.54;100969.44;5031191;28;20068;-79
2021/09/22 03:50:00;;;;;;;12.60;7.90;;;;;;;17.73;58.66;100958.09;5031405;28;20057;-79
2021/09/22 03:52:25;;;;;;;9.25;7.47;;;;;;;17.58;58.70;100971.78;5031254;28;20030;-77
2021/09/22 03:54:51;;;;;;;11.48;7.40;;;;;;;17.57;58.23;100968.31;5031182;28;20033;-77
2021/09/22 03:57:16;;;;;;;14.32;8.40;;;;;;;17.57;60.12;100963.06;5046370;28;20061;-78
2021/09/22 03:59:42;;;;;;;21.02;9.55;;;;;;;17.54;59.21;100963.00;5031185;28;20064;-77
2021/09/22 04:02:08;;;;;;;15.23;9.25;;;;;;;17.38;58.59;100955.78;5030223;28;20060;-77
2021/09/22 04:04:33;;;;;;;15.10;9.35;;;;;;;17.36;59.17;100962.72;5031183;28;20137;-78
2021/09/22 04:06:59;;;;;;;12.90;9.07;;;;;;;17.25;58.16;100939.94;5030398;28;20088;-77
2021/09/22 04:09:25;;;;;;;11.68;9.20;;;;;;;17.42;58.69;100958.47;5030845;28;20052;-75
2021/09/22 04:11:51;;;;;;;12.82;9.05;;;;;;;17.35;58.10;100955.75;5029007;28;20041;-77
2021/09/22 04:14:17;;;;;;;10.98;8.27;;;;;;;17.36;57.81;100952.25;5030703;28;20113;-77
2021/09/22 04:16:42;;;;;;;11.40;8.10;;;;;;;17.48;56.89;100952.47;5030670;28;20458;-77
2021/09/22 04:19:08;;;;;;;16.15;8.55;;;;;;;17.47;57.36;100961.19;5030879;28;20030;-77
2021/09/22 04:21:33;;;;;;;9.95;8.18;;;;;;;17.50;57.71;100962.97;5030195;28;20108;-77
2021/09/22 04:23:59;;;;;;;12.85;9.25;;;;;;;17.26;57.89;100917.34;5030656;28;20026;-77
2021/09/22 04:26:25;;;;;;;12.70;8.88;;;;;;;17.47;58.06;100955.97;5029991;28;20048;-77
2021/09/22 04:28:51;;;;;;;13.65;9.02;;;;;;;17.50;57.66;100956.00;5030675;28;20029;-77
2021/09/22 04:31:16;;;;;;;13.45;8.90;;;;;;;17.54;57.40;100951.69;5030299;28;20026;-79
2021/09/22 04:33:42;;;;;;;13.45;8.50;;;;;;;17.51;56.93;100954.25;5030748;28;20030;-77
2021/09/22 04:36:07;;;;;;;9.93;8.35;;;;;;;17.48;57.37;100962.03;5020142;28;20471;-76
2021/09/22 04:38:34;;;;;;;11.02;8.45;;;;;;;17.41;57.67;100953.25;5028000;28;20064;-79
2021/09/22 04:41:00;;;;;;;10.57;8.43;;;;;;;17.29;57.38;100909.53;5047671;28;20045;-77
2021/09/22 04:43:25;;;;;;;9.55;8.23;;;;;;;17.38;56.65;100934.91;5049569;28;20543;-78
2021/09/22 04:45:51;;;;;;;9.57;8.60;;;;;;;17.35;57.25;100929.66;5051804;28;20045;-77
2021/09/22 04:48:16;;;;;;;11.90;8.65;;;;;;;17.44;56.48;100935.00;5049409;28;20040;-77
2021/09/22 04:50:42;;;;;;;11.20;9.00;;;;;;;17.36;57.57;100921.84;5031331;28;20026;-77
2021/09/22 04:53:08;;;;;;;9.30;8.35;;;;;;;17.40;58.05;100931.47;5031319;28;20033;-77
2021/09/22 04:55:33;;;;;;;12.10;8.25;;;;;;;17.44;57.21;100924.56;5031276;28;20025;-79
2021/09/22 04:57:58;;;;;;;11.50;7.60;;;;;;;17.28;57.78;100937.38;5031581;28;20061;-77
2021/09/22 05:00:24;;;;;;;11.32;8.43;;;;;;;16.70;59.38;100934.56;5031561;28;20408;-76
2021/09/22 05:02:50;;;;;;;9.15;7.93;;;;;;;16.27;60.91;100929.34;5031409;28;20026;-77
2021/09/22 05:05:15;;;;;;;9.57;8.57;;;;;;;16.11;61.46;100929.88;5031501;28;20040;-77
2021/09/22 05:07:41;;;;;;;11.50;9.98;;;;;;;15.96;62.44;100940.84;5031499;28;20033;-77
2021/09/22 05:10:08;;;;;;;10.10;8.43;;;;;;;15.91;61.82;100929.44;5030630;28;20551;-77
2021/09/22 05:12:33;;;;;;;11.23;8.93;;;;;;;15.84;62.54;100933.66;5031377;28;20046;-75
2021/09/22 05:14:59;;;;;;;11.98;9.25;;;;;;;15.89;63.14;100934.63;5030994;28;20487;-77
2021/09/22 05:17:24;;;;;;;11.07;8.43;;;;;;;15.93;62.55;100930.38;5031043;28;20120;-77
2021/09/22 05:19:52;;;;;;;11.23;9.00;;;;;;;16.00;61.88;100930.53;5033662;28;20033;-77
2021/09/22 05:22:17;;;;;;;12.07;8.93;;;;;;;15.78;62.31;100910.03;5014776;28;20420;-76
2021/09/22 05:24:43;;;;;;;9.77;8.05;;;;;;;15.82;62.15;100930.97;5033381;28;20033;-77
2021/09/22 05:27:09;;;;;;;10.50;9.00;;;;;;;15.76;62.73;100927.34;5049136;28;20022;-77
2021/09/22 05:29:36;;;;;;;11.32;8.60;;;;;;;15.73;62.51;100942.91;5032978;28;20036;-77
2021/09/22 05:32:02;;;;;;;9.90;8.70;;;;;;;15.81;61.90;100939.63;5033451;28;20030;-77
2021/09/22 05:34:28;;;;;;;9.30;7.90;;;;;;;15.85;61.77;100943.22;5033098;28;20049;-77
2021/09/22 05:36:54;;;;;;;10.50;8.25;;;;;;;15.76;62.11;100928.19;5033003;28;20033;-76
2021/09/22 05:39:20;;;;;;;8.90;7.85;;;;;;;15.81;61.34;100912.69;5033276;28;20026;-77
2021/09/22 05:41:45;;;;;;;8.80;7.68;;;;;;;15.85;60.69;100891.16;5033320;28;20109;-77
2021/09/22 05:44:11;;;;;;;11.68;8.95;;;;;;;15.83;60.83;100878.06;5033203;28;20029;-77
2021/09/22 05:46:36;;;;;;;10.90;7.80;;;;;;;16.13;60.88;100925.59;5033215;28;20022;-77
2021/09/22 05:49:03;;;;;;;12.82;8.40;;;;;;;16.20;60.85;100927.47;5031821;28;20029;-76
2021/09/22 05:51:30;;;;;;;12.05;8.65;;;;;;;16.20;61.13;100921.38;5033022;28;20031;-77
2021/09/22 05:53:55;;;;;;;9.60;7.63;;;;;;;15.96;60.44;100913.09;5031278;28;20040;-77
2021/09/22 05:56:21;;;;;;;14.15;9.15;;;;;;;15.80;59.82;100919.63;5032261;28;20025;-77
2021/09/22 05:58:46;;;;;;;10.18;7.53;;;;;;;15.95;59.73;100902.63;5033280;28;20033;-77
2021/09/22 06:01:12;;;;;;;9.55;8.27;;;;;;;16.16;59.06;100907.41;5032564;28;20057;-76
2021/09/22 06:03:37;;;;;;;8.73;7.63;;;;;;;16.03;60.11;100908.88;5032690;28;20044;-76
2021/09/22 06:06:03;;;;;;;14.00;8.25;;;;;;;16.08;59.56;100904.66;5032634;28;20025;-75
2021/09/22 06:08:29;;;;;;;11.18;9.25;;;;;;;16.27;58.92;100907.63;5032624;28;20059;-77
2021/09/22 06:10:55;;;;;;;9.90;8.52;;;;;;;16.48;59.38;100902.84;5032960;28;20506;-77
2021/09/22 06:13:20;;;;;;;15.45;9.85;;;;;;;16.45;60.16;100873.28;5032621;28;20025;-77
2021/09/22 06:15:47;;;;;;;13.07;9.65;;;;;;;16.70;60.88;100898.06;5033008;28;20041;-77
2021/09/22 06:18:12;;;;;;;14.10;9.82;;;;;;;16.42;61.20;100860.16;5032844;28;20052;-76
2021/09/22 06:20:38;;;;;;;14.40;9.68;;;;;;;16.44;60.91;100885.41;5032537;28;20475;-77
2021/09/22 06:23:03;;;;;;;10.63;7.68;;;;;;;16.15;59.71;100851.84;5032408;28;20048;-77
2021/09/22 06:25:29;;;;;;;12.75;8.05;;;;;;;16.05;59.74;100859.41;5032525;28;20051;-76
2021/09/22 06:27:55;;;;;;;10.27;8.57;;;;;;;16.14;60.46;100872.66;5032417;28;20032;-75
2021/09/22 06:30:20;;;;;;;11.82;9.32;;;;;;;16.34;59.43;100892.16;5032392;28;20102;-76
2021/09/22 06:32:46;;;;;;;9.73;8.27;;;;;;;16.41;58.59;100900.09;5032604;28;20040;-79
2021/09/22 06:35:13;;;;;;;13.38;8.38;;;;;;;16.39;59.39;100897.47;5032390;28;20112;-76
2021/09/22 06:37:38;;;;;;;12.68;8.50;;;;;;;16.29;59.98;100874.69;5031897;28;20104;-79
2021/09/22 06:40:05;;;;;;;18.42;9.55;;;;;;;16.54;60.33;100890.81;5032412;28;20035;-77
2021/09/22 06:42:31;;;;;;;9.27;7.93;;;;;;;16.58;58.48;100903.91;5031884;28;20033;-77
2021/09/22 06:44:56;;;;;;;12.45;8.82;;;;;;;16.59;58.65;100904.81;5032163;28;20032;-75
2021/09/22 06:47:22;;;;;;;8.65;7.28;;;;;;;16.60;57.75;100883.09;5032045;28;20037;-77
2021/09/22 06:49:47;;;;;;;10.52;9.00;;;;;;;16.60;58.32;100876.16;5032245;28;20025;-77
2021/09/22 06:52:13;;;;;;;9.77;8.15;;;;;;;16.80;58.27;100912.16;5032045;28;20033;-75
2021/09/22 06:54:39;;;;;;;9.93;8.77;;;;;;;16.96;58.24;100916.81;5047389;28;20033;-77
2021/09/22 06:57:04;;;;;;;10.95;9.00;;;;;;;16.91;57.63;100899.28;5031657;28;20033;-77
2021/09/22 06:59:30;;;;;;;10.20;9.10;;;;;;;16.91;57.78;100904.50;5031455;28;20068;-77
2021/09/22 07:01:55;;;;;;;10.48;8.80;;;;;;;16.79;57.46;100885.19;5031595;28;20038;-77
2021/09/22 07:04:21;;;;;;;14.30;8.65;;;;;;;16.89;57.45;100908.84;5023157;28;20111;-76
2021/09/22 07:06:46;;;;;;;9.95;8.27;;;;;;;16.71;58.58;100898.94;5031329;28;20112;-77
2021/09/22 07:09:12;;;;;;;9.38;8.38;;;;;;;16.83;58.46;100917.41;5031749;28;20033;-76
2021/09/22 07:11:37;;;;;;;10.07;8.05;;;;;;;16.58;58.39;100893.47;5031441;28;20033;-77
2021/09/22 07:14:03;;;;;;;17.30;9.50;;;;;;;16.68;59.15;100899.75;5031618;28;20091;-79
2021/09/22 07:16:29;;;;;;;10.23;8.65;;;;;;;16.61;59.29;100896.16;5031707;28;20032;-77
2021/09/22 07:18:56;;;;;;;12.10;8.90;;;;;;;16.69;59.18;100898.03;5031704;28;20030;-77
2021/09/22 07:21:23;;;;;;;12.98;8.55;;;;;;;16.50;59.57;100888.13;5030276;28;20033;-77
2021/09/22 07:23:48;;;;;;;11.05;8.90;;;;;;;16.68;59.04;100902.34;5029841;28;20025;-77
2021/09/22 07:26:14;;;;;;;11.07;8.55;;;;;;;16.90;58.24;100908.84;5028144;28;20037;-77
2021/09/22 07:28:39;;;;;;;11.70;9.05;;;;;;;16.89;58.24;100899.25;5030126;28;20026;-77
2021/09/22 07:31:05;;;;;;;11.43;9.60;;;;;;;16.95;57.63;100895.94;5029368;28;20087;-77
2021/09/22 07:33:30;;;;;;;13.38;9.25;;;;;;;17.02;57.21;100883.88;5031538;28;20057;-80
2021/09/22 07:35:57;;;;;;;9.50;8.50;;;;;;;17.07;57.07;100895.25;5031136;28;20079;-80
2021/09/22 07:38:22;;;;;;;19.38;8.27;;;;;;;16.69;58.00;100877.19;5030989;28;20399;-76
2021/09/22 07:40:49;;;;;;;15.32;8.32;;;;;;;16.54;58.97;100878.63;5031494;28;20036;-77
2021/09/22 07:43:14;;;;;;;9.13;8.05;;;;;;;16.45;59.18;100871.53;5029619;28;20480;-79
2021/09/22 07:45:40;;;;;;;12.82;8.30;;;;;;;16.69;59.19;100885.88;5031018;28;20068;-79
2021/09/22 07:48:06;;;;;;;12.52;9.10;;;;;;;16.90;58.18;100879.31;5030847;28;20396;-76
2021/09/22 07:50:32;;;;;;;12.00;9.13;;;;;;;17.06;56.95;100873.53;5030379;28;20100;-77
2021/09/22 07:52:57;;;;;;;12.73;8.70;;;;;;;17.23;56.68;100886.81;5028651;28;20037;-73
2021/09/22 07:55:23;;;;;;;10.35;8.85;;;;;;;17.31;56.35;100886.97;5027248;28;20018;-71
2021/09/22 07:57:53;;;;;;;13.30;9.50;;;;;;;17.23;55.15;100879.00;5028727;28;20021;-72
2021/09/22 08:00:18;;;;;;;16.70;9.52;;;;;;;16.84;56.55;100868.75;5027332;28;20099;-71
2021/09/22 08:02:44;;;;;;;13.10;8.52;;;;;;;16.92;56.85;100885.44;5029183;28;20029;-70
2021/09/22 08:05:10;;;;;;;13.02;9.40;;;;;;;17.12;56.67;100870.13;5018250;28;20082;-70
2021/09/22 08:07:36;;;;;;;10.55;8.90;;;;;;;17.13;56.33;100858.84;5017623;28;20018;-70
2021/09/22 08:10:02;;;;;;;12.02;9.98;;;;;;;16.98;56.41;100852.53;5017112;28;20423;-75
2021/09/22 08:12:27;;;;;;;12.88;9.48;;;;;;;17.00;57.22;100839.50;5022955;28;20032;-70
2021/09/22 08:14:52;;;;;;;17.15;9.70;;;;;;;16.86;57.26;100818.38;5023165;28;20029;-71
2021/09/22 08:17:19;;;;;;;14.95;9.57;;;;;;;16.94;57.24;100829.84;5026567;28;20029;-73
2021/09/22 08:19:45;;;;;;;11.07;9.38;;;;;;;17.05;57.20;100848.28;5032557;28;20499;-71
2021/09/22 08:22:10;;;;;;;12.30;9.60;;;;;;;17.18;57.13;100851.09;5031903;28;20026;-74
2021/09/22 08:24:37;;;;;;;14.35;9.88;;;;;;;17.23;57.02;100847.69;5034075;28;20033;-77
2021/09/22 08:27:04;;;;;;;12.05;9.85;;;;;;;17.25;56.81;100845.13;5034123;28;20025;-75
2021/09/22 08:29:31;;;;;;;12.55;9.80;;;;;;;17.42;56.53;100829.69;5031417;28;20025;-71
2021/09/22 08:31:57;;;;;;;15.10;10.45;;;;;;;17.55;56.37;100828.16;5003238;28;20049;-73
2021/09/22 08:34:23;;;;;;;11.88;10.63;;;;;;;17.48;55.98;100810.66;5031349;28;20021;-74
2021/09/22 08:36:48;;;;;;;12.27;10.75;;;;;;;17.48;56.17;100823.69;5033227;28;20037;-73
2021/09/22 08:39:15;;;;;;;12.18;10.88;;;;;;;17.43;56.56;100826.25;5033559;28;20045;-73
2021/09/22 08:41:42;;;;;;;13.65;11.02;;;;;;;17.50;56.53;100814.16;5025143;28;20030;-72
2021/09/22 08:44:12;;;;;;;13.60;10.10;;;;;;;17.71;55.89;100818.81;5024119;28;20112;-70
2021/09/22 08:46:41;;;;;;;14.77;10.93;;;;;;;17.42;55.98;100770.56;5033194;28;20182;-75
2021/09/22 08:49:08;;;;;;;13.35;10.38;;;;;;;17.77;55.99;100817.13;5033218;28;20021;-73
2021/09/22 08:51:34;;;;;;;13.60;10.38;;;;;;;17.75;55.77;100816.22;5032651;28;20037;-74
2021/09/22 08:54:00;;;;;;;11.73;10.25;;;;;;;17.88;55.69;100804.22;5026426;28;20034;-74
2021/09/22 08:56:26;;;;;;;14.40;11.07;;;;;;;17.85;55.75;100801.56;5022391;28;20143;-70
2021/09/22 08:58:53;;;;;;;13.88;11.82;;;;;;;17.88;55.33;100795.50;5033638;28;20044;-71
2021/09/22 09:01:21;;;;;;;16.98;12.57;;;;;;;17.92;55.86;100797.31;5033700;28;20103;-70
2021/09/22 09:03:48;;;;;;;18.38;12.68;;;;;;;17.86;55.54;100787.66;5033876;28;20441;-75
2021/09/22 09:06:15;;;;;;;13.25;10.77;;;;;;;17.84;55.99;100776.28;5033369;28;20480;-75
2021/09/22 09:08:41;;;;;;;14.50;10.38;;;;;;;17.63;55.68;100742.97;5015700;28;20045;-73
2021/09/22 09:11:07;;;;;;;15.20;10.90;;;;;;;17.88;56.09;100769.38;5015295;28;20018;-70
2021/09/22 09:13:48;;;;;;;13.40;10.68;;;;;;;17.86;56.13;100777.19;5015530;28;20381;-70
2021/09/22 09:16:22;;;;;;;12.05;10.00;;;;;;;17.87;55.99;100765.00;5016871;28;20042;-76
2021/09/22 09:18:53;;;;;;;13.35;10.18;;;;;;;17.70;56.37;100749.16;5014241;28;20044;-75
2021/09/22 09:21:19;;;;;;;11.70;10.15;;;;;;;17.63;57.03;100746.47;5015247;28;20037;-76
2021/09/22 09:23:57;;;;;;;15.38;10.32;;;;;;;17.51;56.96;100735.88;5013662;28;20065;-75
2021/09/22 09:26:30;;;;;;;15.70;10.38;;;;;;;17.55;57.05;100721.13;5014869;28;20515;-74
2021/09/22 09:28:58;;;;;;;15.25;11.13;;;;;;;17.79;57.21;100754.47;5015182;28;20018;-72
2021/09/22 09:31:33;;;;;;;21.60;11.57;;;;;;;17.77;57.19;100756.22;5015410;28;20064;-73
2021/09/22 09:34:01;;;;;;;11.82;10.07;;;;;;;17.81;57.06;100742.31;5024770;28;20041;-74
2021/09/22 09:36:42;;;;;;;12.80;9.93;;;;;;;17.84;56.81;100737.13;5032031;28;20476;-75
2021/09/22 09:39:25;;;;;;;13.30;10.55;;;;;;;17.98;56.34;100739.94;5032034;28;20021;-76
2021/09/22 09:41:57;;;;;;;15.30;10.77;;;;;;;17.79;57.04;100726.66;5032692;28;20025;-75
2021/09/22 09:44:26;;;;;;;13.65;10.43;;;;;;;17.87;56.55;100731.94;5032742;28;20034;-75
2021/09/22 09:46:53;;;;;;;15.85;9.48;;;;;;;17.77;56.96;100730.09;5032430;28;20453;-74
2021/09/22 09:49:24;;;;;;;15.07;9.65;;;;;;;17.77;57.44;100733.56;5024299;28;20385;-75
2021/09/22 09:52:00;;;;;;;14.40;9.70;;;;;;;17.85;57.03;100733.66;5027562;28;20029;-71
2021/09/22 09:54:35;;;;;;;19.77;9.52;;;;;;;17.98;56.42;100734.72;5030130;28;20424;-74
2021/09/22 09:57:16;;;;;;;12.68;9.20;;;;;;;17.95;56.11;100729.44;5016289;28;20056;-75
2021/09/22 09:59:50;;;;;;;11.40;9.63;;;;;;;17.84;56.86;100723.19;5014468;28;20046;-75
2021/09/22 10:02:33;;;;;;;11.35;9.07;;;;;;;17.80;56.56;100727.50;5015362;28;20038;-75
2021/09/22 10:05:00;;;;;;;15.60;9.48;;;;;;;17.75;56.50;100732.66;5013566;28;20026;-76
2021/09/22 10:07:29;;;;;;;11.48;8.90;;;;;;;17.59;56.11;100721.16;5013766;28;20482;-77
2021/09/22 10:09:55;;;;;;;13.30;10.57;;;;;;;17.20;57.60;100732.84;5018239;28;20104;-77
2021/09/22 10:12:21;;;;;;;16.25;11.30;;;;;;;17.07;57.85;100695.28;5011908;28;20580;-74
2021/09/22 10:14:48;;;;;;;26.08;16.13;;;;;;;17.36;57.36;100713.06;5011412;28;20049;-77
2021/09/22 10:17:15;;;;;;;22.65;14.35;;;;;;;17.55;56.78;100722.00;5011930;28;20464;-74
2021/09/22 10:19:46;;;;;;;15.05;11.82;;;;;;;17.67;56.62;100717.78;5013001;28;20080;-73
2021/09/22 10:22:11;;;;;;;15.63;12.00;;;;;;;17.50;56.29;100696.72;5012890;28;20030;-76
2021/09/22 10:24:37;;;;;;;11.75;9.95;;;;;;;17.53;56.23;100720.22;5013450;28;20033;-76
2021/09/22 10:27:04;;;;;;;10.70;9.30;;;;;;;17.25;56.43;100720.75;5011701;28;20065;-75
2021/09/22 10:29:37;;;;;;;14.35;9.48;;;;;;;16.88;57.04;100707.13;5011576;28;20036;-77
2021/09/22 10:32:04;;;;;;;13.27;11.20;;;;;;;16.93;56.58;100707.25;5013842;28;20029;-77
2021/09/22 10:34:36;;;;;;;14.63;11.15;;;;;;;16.79;56.15;100679.19;5015831;28;20032;-77
2021/09/22 10:37:05;;;;;;;13.65;12.23;;;;;;;17.20;55.92;100717.19;5014968;28;20042;-75
2021/09/22 10:39:36;;;;;;;13.30;11.35;;;;;;;17.12;55.40;100682.28;5017982;28;20084;-76
2021/09/22 10:42:22;;;;;;;12.32;10.35;;;;;;;17.18;54.68;100705.84;5021703;28;20076;-75
2021/09/22 10:44:47;;;;;;;12.05;10.32;;;;;;;17.12;55.30;100714.50;5031132;28;20103;-76
2021/09/22 10:47:28;;;;;;;14.55;9.68;;;;;;;16.92;55.51;100700.28;5017328;28;20485;-75
2021/09/22 10:49:54;;;;;;;15.55;9.13;;;;;;;17.20;55.56;100693.72;5018056;28;21673;-73
2021/09/22 10:52:29;;;;;;;15.38;9.50;;;;;;;17.49;56.78;100693.19;5018184;28;20061;-75
2021/09/22 10:55:14;;;;;;;14.38;9.88;;;;;;;17.59;56.69;100696.81;5014092;28;20029;-74
2021/09/22 10:57:42;;;;;;;12.02;8.98;;;;;;;17.73;56.14;100700.47;5015567;28;20131;-76
2021/09/22 11:00:17;;;;;;;12.23;8.93;;;;;;;17.72;56.07;100693.47;5019238;28;20050;-76
2021/09/22 11:02:53;;;;;;;14.40;9.60;;;;;;;17.81;56.25;100694.41;5014301;28;20033;-73
2021/09/22 11:05:27;;;;;;;11.38;9.15;;;;;;;17.86;55.51;100693.63;5015744;28;20400;-74
2021/09/22 11:07:54;;;;;;;12.77;9.05;;;;;;;17.92;55.48;100698.06;5010701;28;20026;-72
2021/09/22 11:10:42;;;;;;;14.13;9.50;;;;;;;18.00;54.66;100687.72;5014865;28;20034;-73
2021/09/22 11:13:23;;;;;;;11.65;9.45;;;;;;;18.18;54.80;100684.38;5014722;28;20080;-74
2021/09/22 11:16:07;;;;;;;19.15;9.75;;;;;;;18.31;54.68;100686.25;5011374;28;20554;-75
2021/09/22 11:18:33;;;;;;;30.95;10.98;;;;;;;18.36;53.83;100686.28;5013548;28;20116;-73